createdAt,value
2016-03-23T00:00:40.516Z,0
2016-03-23T00:01:40.518Z,0
2016-03-23T00:02:40.490Z,0
2016-03-23T00:03:40.476Z,0
2016-03-23T00:04:40.511Z,0
2016-03-23T00:05:40.497Z,0
2016-03-23T00:06:40.329Z,0
2016-03-23T00:07:40.487Z,0
2016-03-23T00:08:40.521Z,0
2016-03-23T00:09:40.492Z,0
2016-03-23T00:10:40.511Z,0
2016-03-23T00:11:40.514Z,0
2016-03-23T00:12:40.516Z,0
2016-03-23T00:13:40.675Z,0
2016-03-23T00:14:40.506Z,0
2016-03-23T00:15:40.493Z,0
2016-03-23T00:16:39.747Z,0
2016-03-23T00:17:40.514Z,0
2016-03-23T00:18:40.517Z,0
2016-03-23T00:19:40.504Z,0
2016-03-23T00:20:40.507Z,0
2016-03-23T00:21:40.353Z,0
2016-03-23T00:22:40.512Z,0
2016-03-23T00:23:40.500Z,0
2016-03-23T00:24:39.893Z,0
2016-03-23T00:25:40.489Z,0
2016-03-23T00:26:40.523Z,0
2016-03-23T00:27:40.510Z,0
2016-03-23T00:28:40.419Z,0
2016-03-23T00:29:40.515Z,0
2016-03-23T00:30:40.506Z,0
2016-03-23T00:31:40.508Z,0
2016-03-23T00:32:40.496Z,0
2016-03-23T00:33:40.513Z,0
2016-03-23T00:34:40.501Z,0
2016-03-23T00:35:40.518Z,0
2016-03-23T00:36:40.506Z,0
2016-03-23T00:37:40.524Z,0
2016-03-23T00:38:40.496Z,0
2016-03-23T00:39:40.514Z,0
2016-03-23T00:40:40.501Z,0
2016-03-23T00:41:40.504Z,0
2016-03-23T00:42:39.912Z,0
2016-03-23T00:43:40.384Z,0
2016-03-23T00:44:40.511Z,0
2016-03-23T00:45:40.545Z,0
2016-03-23T00:46:40.533Z,0
2016-03-23T00:47:40.535Z,0
2016-03-23T00:48:40.523Z,0
2016-03-23T00:49:40.525Z,0
2016-03-23T00:50:40.528Z,0
2016-03-23T00:51:40.500Z,0
2016-03-23T00:52:40.533Z,0
2016-03-23T00:53:40.536Z,0
2016-03-23T00:54:40.507Z,0
2016-03-23T00:55:40.542Z,0
2016-03-23T00:56:40.528Z,0
2016-03-23T00:57:40.515Z,0
2016-03-23T00:58:40.377Z,0
2016-03-23T00:59:40.536Z,0
2016-03-23T01:00:40.539Z,0
2016-03-23T01:01:40.527Z,0
2016-03-23T01:02:40.530Z,0
2016-03-23T01:03:40.532Z,0
2016-03-23T01:04:40.534Z,0
2016-03-23T01:05:40.568Z,0
2016-03-23T01:06:40.368Z,0
2016-03-23T01:07:40.526Z,0
2016-03-23T01:08:40.514Z,0
2016-03-23T01:09:40.547Z,0
2016-03-23T01:10:40.520Z,0
2016-03-23T01:11:40.600Z,0
2016-03-23T01:12:40.525Z,0
2016-03-23T01:13:40.543Z,0
2016-03-23T01:14:40.545Z,0
2016-03-23T01:15:40.517Z,0
2016-03-23T01:16:40.520Z,0
2016-03-23T01:17:40.539Z,0
2016-03-23T01:18:40.525Z,0
2016-03-23T01:19:40.574Z,0
2016-03-23T01:20:40.515Z,0
2016-03-23T01:21:40.533Z,0
2016-03-23T01:22:40.567Z,0
2016-03-23T01:23:40.555Z,0
2016-03-23T01:24:40.525Z,0
2016-03-23T01:25:40.606Z,0
2016-03-23T01:26:40.531Z,0
2016-03-23T01:27:40.550Z,0
2016-03-23T01:28:40.568Z,0
2016-03-23T01:29:40.554Z,0
2016-03-23T01:30:40.558Z,0
2016-03-23T01:31:40.560Z,0
2016-03-23T01:32:40.532Z,0
2016-03-23T01:33:40.519Z,0
2016-03-23T01:34:40.538Z,0
2016-03-23T01:35:40.540Z,0
2016-03-23T01:36:40.542Z,0
2016-03-23T01:37:40.560Z,0
2016-03-23T01:38:40.532Z,0
2016-03-23T01:39:40.566Z,0
2016-03-23T01:40:40.568Z,0
2016-03-23T01:41:40.556Z,0
2016-03-23T01:42:40.527Z,0
2016-03-23T01:43:40.561Z,0
2016-03-23T01:44:40.548Z,0
2016-03-23T01:45:40.551Z,0
2016-03-23T01:46:40.537Z,0
2016-03-23T01:47:40.556Z,0
2016-03-23T01:48:40.559Z,0
2016-03-23T01:49:40.561Z,0
2016-03-23T01:50:40.392Z,0
2016-03-23T01:51:40.583Z,0
2016-03-23T01:52:40.570Z,0
2016-03-23T01:53:40.572Z,0
2016-03-23T01:54:40.544Z,0
2016-03-23T01:55:40.562Z,0
2016-03-23T01:56:40.564Z,0
2016-03-23T01:57:40.536Z,0
2016-03-23T01:58:40.554Z,0
2016-03-23T01:59:40.558Z,0
2016-03-23T02:00:41.154Z,0
2016-03-23T02:01:40.546Z,0
2016-03-23T02:02:40.550Z,0
2016-03-23T02:03:40.537Z,0
2016-03-23T02:04:40.540Z,0
2016-03-23T02:05:40.558Z,0
2016-03-23T02:06:40.561Z,0
2016-03-23T02:07:40.532Z,0
2016-03-23T02:08:41.370Z,0
2016-03-23T02:09:40.589Z,0
2016-03-23T02:10:40.769Z,0
2016-03-23T02:11:47.203Z,0
2016-03-23T02:12:40.551Z,0
2016-03-23T02:13:40.568Z,0
2016-03-23T02:14:40.540Z,0
2016-03-23T02:15:40.573Z,0
2016-03-23T02:16:40.561Z,0
2016-03-23T02:17:40.548Z,0
2016-03-23T02:18:40.535Z,0
2016-03-23T02:19:40.569Z,0
2016-03-23T02:20:40.546Z,0
2016-03-23T02:21:40.549Z,0
2016-03-23T02:22:40.567Z,0
2016-03-23T02:23:40.554Z,0
2016-03-23T02:24:40.556Z,0
2016-03-23T02:25:40.560Z,0
2016-03-23T02:26:40.547Z,0
2016-03-23T02:27:40.549Z,0
2016-03-23T02:28:40.567Z,0
2016-03-23T02:29:40.539Z,0
2016-03-23T02:30:40.619Z,0
2016-03-23T02:31:40.545Z,0
2016-03-23T02:32:40.547Z,0
2016-03-23T02:33:40.566Z,0
2016-03-23T02:34:40.552Z,0
2016-03-23T02:35:40.555Z,0
2016-03-23T02:36:40.558Z,0
2016-03-23T02:37:40.545Z,0
2016-03-23T02:38:40.563Z,0
2016-03-23T02:39:40.565Z,0
2016-03-23T02:40:40.569Z,0
2016-03-23T02:41:40.556Z,0
2016-03-23T02:42:40.559Z,0
2016-03-23T02:43:40.577Z,0
2016-03-23T02:44:40.548Z,0
2016-03-23T02:45:40.535Z,0
2016-03-23T02:46:40.569Z,0
2016-03-23T02:47:40.557Z,0
2016-03-23T02:48:40.590Z,0
2016-03-23T02:49:40.546Z,0
2016-03-23T02:50:40.564Z,0
2016-03-23T02:51:40.567Z,0
2016-03-23T02:52:40.570Z,0
2016-03-23T02:53:40.556Z,0
2016-03-23T02:54:40.560Z,0
2016-03-23T02:55:40.547Z,0
2016-03-23T02:56:40.550Z,0
2016-03-23T02:57:40.584Z,0
2016-03-23T02:58:40.570Z,0
2016-03-23T02:59:40.589Z,0
2016-03-23T03:00:40.575Z,0
2016-03-23T03:01:40.563Z,0
2016-03-23T03:02:40.566Z,0
2016-03-23T03:03:40.583Z,0
2016-03-23T03:04:40.586Z,0
2016-03-23T03:05:40.558Z,0
2016-03-23T03:06:40.545Z,0
2016-03-23T03:07:40.547Z,0
2016-03-23T03:08:40.582Z,0
2016-03-23T03:09:40.585Z,0
2016-03-23T03:10:40.588Z,0
2016-03-23T03:11:40.574Z,0
2016-03-23T03:12:40.592Z,0
2016-03-23T03:13:40.579Z,0
2016-03-23T03:14:40.566Z,0
2016-03-23T03:15:40.568Z,0
2016-03-23T03:16:40.572Z,0
2016-03-23T03:17:40.590Z,0
2016-03-23T03:18:40.576Z,0
2016-03-23T03:19:40.564Z,0
2016-03-23T03:20:40.645Z,0
2016-03-23T03:21:40.585Z,0
2016-03-23T03:22:40.556Z,0
2016-03-23T03:23:40.887Z,0
2016-03-23T03:24:40.562Z,0
2016-03-23T03:25:40.580Z,0
2016-03-23T03:26:40.614Z,0
2016-03-23T03:27:40.601Z,0
2016-03-23T03:28:40.589Z,0
2016-03-23T03:29:40.575Z,0
2016-03-23T03:30:40.578Z,0
2016-03-23T03:31:40.597Z,0
2016-03-23T03:32:40.585Z,0
2016-03-23T03:33:40.572Z,0
2016-03-23T03:34:40.558Z,0
2016-03-23T03:35:40.655Z,0
2016-03-23T03:36:40.548Z,0
2016-03-23T03:37:40.567Z,0
2016-03-23T03:38:40.569Z,0
2016-03-23T03:39:40.572Z,0
2016-03-23T03:40:40.591Z,0
2016-03-23T03:41:40.577Z,0
2016-03-23T03:42:40.581Z,0
2016-03-23T03:43:40.567Z,0
2016-03-23T03:44:40.555Z,0
2016-03-23T03:45:40.572Z,0
2016-03-23T03:46:40.560Z,0
2016-03-23T03:47:40.563Z,0
2016-03-23T03:48:40.580Z,0
2016-03-23T03:49:40.568Z,0
2016-03-23T03:50:40.571Z,0
2016-03-23T03:51:40.573Z,0
2016-03-23T03:52:40.591Z,0
2016-03-23T03:53:40.563Z,0
2016-03-23T03:54:40.566Z,0
2016-03-23T03:55:40.568Z,0
2016-03-23T03:56:40.618Z,0
2016-03-23T03:57:40.558Z,0
2016-03-23T03:58:40.560Z,0
2016-03-23T03:59:40.563Z,0
2016-03-23T04:00:40.566Z,0
2016-03-23T04:01:40.553Z,0
2016-03-23T04:02:40.571Z,0
2016-03-23T04:03:40.590Z,0
2016-03-23T04:04:40.577Z,0
2016-03-23T04:05:40.579Z,0
2016-03-23T04:06:40.582Z,0
2016-03-23T04:07:40.569Z,0
2016-03-23T04:08:40.634Z,0
2016-03-23T04:09:40.559Z,0
2016-03-23T04:10:40.014Z,0
2016-03-23T04:11:40.565Z,0
2016-03-23T04:12:40.552Z,0
2016-03-23T04:13:40.586Z,0
2016-03-23T04:14:40.557Z,0
2016-03-23T04:15:40.560Z,0
2016-03-23T04:16:40.578Z,0
2016-03-23T04:17:40.440Z,0
2016-03-23T04:18:40.630Z,0
2016-03-23T04:19:40.570Z,0
2016-03-23T04:20:40.604Z,0
2016-03-23T04:21:40.560Z,0
2016-03-23T04:22:40.562Z,0
2016-03-23T04:23:40.565Z,0
2016-03-23T04:24:40.584Z,0
2016-03-23T04:25:40.570Z,0
2016-03-23T04:26:40.604Z,0
2016-03-23T04:27:40.560Z,0
2016-03-23T04:28:40.578Z,0
2016-03-23T04:29:40.581Z,0
2016-03-23T04:30:40.584Z,0
2016-03-23T04:31:40.634Z,0
2016-03-23T04:32:40.573Z,0
2016-03-23T04:33:40.608Z,0
2016-03-23T04:34:40.564Z,0
2016-03-23T04:35:40.566Z,0
2016-03-23T04:36:40.584Z,4
2016-03-23T04:37:40.837Z,4
2016-03-23T04:38:40.575Z,4
2016-03-23T04:39:40.624Z,0
2016-03-23T04:40:40.595Z,4
2016-03-23T04:41:40.598Z,4
2016-03-23T04:42:40.601Z,4
2016-03-23T04:43:40.572Z,4
2016-03-23T04:44:40.559Z,4
2016-03-23T04:45:40.578Z,4
2016-03-23T04:46:40.564Z,8
2016-03-23T04:47:40.614Z,8
2016-03-23T04:48:40.680Z,8
2016-03-23T04:49:40.558Z,12
2016-03-23T04:50:40.591Z,12
2016-03-23T04:51:40.562Z,16
2016-03-23T04:52:40.597Z,20
2016-03-23T04:53:40.427Z,24
2016-03-23T04:54:40.602Z,24
2016-03-23T04:55:40.589Z,28
2016-03-23T04:56:40.920Z,36
2016-03-23T04:57:41.391Z,44
2016-03-23T04:58:41.675Z,56
2016-03-23T04:59:41.194Z,68
2016-03-23T05:00:41.071Z,76
2016-03-23T05:01:40.730Z,84
2016-03-23T05:02:40.998Z,100
2016-03-23T05:03:40.782Z,120
2016-03-23T05:04:40.722Z,136
2016-03-23T05:05:41.007Z,152
2016-03-23T05:06:40.759Z,176
2016-03-23T05:07:40.871Z,196
2016-03-23T05:08:40.795Z,216
2016-03-23T05:09:40.923Z,212
2016-03-23T05:10:40.833Z,200
2016-03-23T05:11:40.741Z,204
2016-03-23T05:12:40.916Z,224
2016-03-23T05:13:40.793Z,248
2016-03-23T05:14:40.812Z,240
2016-03-23T05:15:40.889Z,224
2016-03-23T05:16:40.867Z,224
2016-03-23T05:17:40.953Z,240
2016-03-23T05:18:40.804Z,240
2016-03-23T05:19:40.734Z,316
2016-03-23T05:20:40.775Z,336
2016-03-23T05:21:40.540Z,432
2016-03-23T05:22:40.836Z,460
2016-03-23T05:23:40.710Z,528
2016-03-23T05:24:40.491Z,496
2016-03-23T05:25:40.491Z,572
2016-03-23T05:26:40.492Z,636
2016-03-23T05:27:41.649Z,708
2016-03-23T05:28:41.541Z,808
2016-03-23T05:29:40.823Z,836
2016-03-23T05:30:40.824Z,824
2016-03-23T05:31:40.827Z,776
2016-03-23T05:32:40.736Z,728
2016-03-23T05:33:40.754Z,740
2016-03-23T05:34:40.694Z,776
2016-03-23T05:35:40.993Z,776
2016-03-23T05:36:40.699Z,768
2016-03-23T05:37:40.764Z,800
2016-03-23T05:38:40.641Z,852
2016-03-23T05:39:40.894Z,880
2016-03-23T05:40:40.850Z,912
2016-03-23T05:41:40.540Z,980
2016-03-23T05:42:40.652Z,1060
2016-03-23T05:43:40.904Z,1148
2016-03-23T05:44:40.970Z,1220
2016-03-23T05:45:40.816Z,1348
2016-03-23T05:46:40.819Z,1432
2016-03-23T05:47:40.791Z,1380
2016-03-23T05:48:40.715Z,1352
2016-03-23T05:49:40.671Z,1308
2016-03-23T05:50:40.782Z,1360
2016-03-23T05:51:40.723Z,1448
2016-03-23T05:52:40.882Z,1416
2016-03-23T05:53:40.760Z,1448
2016-03-23T05:54:40.700Z,1496
2016-03-23T05:55:40.501Z,1536
2016-03-23T05:56:40.518Z,1668
2016-03-23T05:57:40.740Z,1704
2016-03-23T05:58:40.712Z,1676
2016-03-23T05:59:40.729Z,1688
2016-03-23T06:00:40.592Z,1704
2016-03-23T06:01:40.656Z,1748
2016-03-23T06:02:40.690Z,1760
2016-03-23T06:03:40.631Z,1796
2016-03-23T06:04:40.774Z,1816
2016-03-23T06:05:40.495Z,1820
2016-03-23T06:06:40.335Z,1768
2016-03-23T06:07:40.327Z,1664
2016-03-23T06:08:41.617Z,1544
2016-03-23T06:09:41.604Z,1456
2016-03-23T06:10:41.013Z,1508
2016-03-23T06:11:40.656Z,1664
2016-03-23T06:12:40.674Z,1860
2016-03-23T06:13:41.006Z,2084
2016-03-23T06:14:41.086Z,2292
2016-03-23T06:15:40.698Z,2440
2016-03-23T06:16:40.747Z,2536
2016-03-23T06:17:40.734Z,2632
2016-03-23T06:18:40.706Z,2668
2016-03-23T06:19:40.662Z,2612
2016-03-23T06:20:40.181Z,2612
2016-03-23T06:21:40.667Z,2664
2016-03-23T06:22:40.717Z,2760
2016-03-23T06:23:40.750Z,2928
2016-03-23T06:24:40.878Z,3152
2016-03-23T06:25:40.881Z,3356
2016-03-23T06:26:40.681Z,3556
2016-03-23T06:27:40.730Z,3760
2016-03-23T06:28:54.811Z,3996
2016-03-23T06:29:40.735Z,4164
2016-03-23T06:30:40.676Z,4412
2016-03-23T06:31:40.725Z,4708
2016-03-23T06:32:40.791Z,5032
2016-03-23T06:33:40.731Z,5364
2016-03-23T06:34:40.937Z,5612
2016-03-23T06:35:40.690Z,5740
2016-03-23T06:36:40.770Z,5736
2016-03-23T06:37:43.538Z,5604
2016-03-23T06:38:42.151Z,5400
2016-03-23T06:39:39.965Z,5200
2016-03-23T06:40:41.124Z,4944
2016-03-23T06:41:40.486Z,4760
2016-03-23T06:42:40.489Z,4636
2016-03-23T06:43:40.554Z,4488
2016-03-23T06:44:40.245Z,4344
2016-03-23T06:45:40.498Z,4240
2016-03-23T06:46:40.562Z,4148
2016-03-23T06:47:40.503Z,4060
2016-03-23T06:48:40.505Z,4048
2016-03-23T06:49:40.492Z,4036
2016-03-23T06:50:40.511Z,4020
2016-03-23T06:51:40.482Z,3944
2016-03-23T06:52:40.500Z,3816
2016-03-23T06:53:40.488Z,3704
2016-03-23T06:54:40.506Z,3704
2016-03-23T06:55:40.494Z,3736
2016-03-23T06:56:40.497Z,3808
2016-03-23T06:57:40.499Z,3904
2016-03-23T06:58:40.502Z,4060
2016-03-23T06:59:40.598Z,4240
2016-03-23T07:00:40.491Z,4412
2016-03-23T07:01:40.525Z,4504
2016-03-23T07:02:40.513Z,4596
2016-03-23T07:03:40.515Z,4668
2016-03-23T07:04:40.502Z,4792
2016-03-23T07:05:40.520Z,4900
2016-03-23T07:06:40.507Z,4632
2016-03-23T07:07:40.509Z,4492
2016-03-23T07:08:40.529Z,4484
2016-03-23T07:09:40.484Z,4840
2016-03-23T07:10:40.518Z,4768
2016-03-23T07:11:40.521Z,6348
2016-03-23T07:12:40.523Z,6016
2016-03-23T07:13:40.510Z,5184
2016-03-23T07:14:40.684Z,6528
2016-03-23T07:15:40.515Z,6524
2016-03-23T07:16:40.503Z,7084
2016-03-23T07:17:40.536Z,5820
2016-03-23T07:18:40.492Z,5380
2016-03-23T07:19:40.511Z,5552
2016-03-23T07:20:40.528Z,5696
2016-03-23T07:21:40.531Z,6292
2016-03-23T07:22:40.534Z,6384
2016-03-23T07:23:40.537Z,5912
2016-03-23T07:24:40.525Z,5716
2016-03-23T07:25:40.527Z,5876
2016-03-23T07:26:40.577Z,5972
2016-03-23T07:27:40.532Z,6204
2016-03-23T07:28:40.503Z,6452
2016-03-23T07:29:40.569Z,7096
2016-03-23T07:30:40.509Z,7388
2016-03-23T07:31:40.511Z,7824
2016-03-23T07:32:40.530Z,9044
2016-03-23T07:33:40.533Z,10888
2016-03-23T07:34:40.519Z,12540
2016-03-23T07:35:40.522Z,14076
2016-03-23T07:36:40.510Z,13892
2016-03-23T07:37:40.512Z,15680
2016-03-23T07:38:40.499Z,17248
2016-03-23T07:39:40.501Z,16608
2016-03-23T07:40:40.520Z,15872
2016-03-23T07:41:40.523Z,16384
2016-03-23T07:42:40.525Z,15568
2016-03-23T07:43:40.513Z,14628
2016-03-23T07:44:40.515Z,13580
2016-03-23T07:45:40.518Z,10664
2016-03-23T07:46:40.521Z,8680
2016-03-23T07:47:40.539Z,7068
2016-03-23T07:48:40.542Z,6824
2016-03-23T07:49:40.529Z,6704
2016-03-23T07:50:40.547Z,6480
2016-03-23T07:51:40.550Z,6248
2016-03-23T07:52:40.567Z,6684
2016-03-23T07:53:40.555Z,7048
2016-03-23T07:54:40.558Z,7484
2016-03-23T07:55:40.560Z,7564
2016-03-23T07:56:40.564Z,7960
2016-03-23T07:57:40.566Z,9044
2016-03-23T07:58:40.584Z,11584
2016-03-23T07:59:40.555Z,15148
2016-03-23T08:00:40.558Z,14568
2016-03-23T08:01:40.577Z,12184
2016-03-23T08:02:40.549Z,13064
2016-03-23T08:03:40.583Z,13936
2016-03-23T08:04:40.569Z,11000
2016-03-23T08:05:40.572Z,9584
2016-03-23T08:06:40.574Z,9552
2016-03-23T08:07:40.577Z,9944
2016-03-23T08:08:40.580Z,11080
2016-03-23T08:09:40.567Z,11184
2016-03-23T08:10:40.976Z,11312
2016-03-23T08:11:40.587Z,13996
2016-03-23T08:12:40.575Z,16020
2016-03-23T08:13:40.593Z,15448
2016-03-23T08:14:40.596Z,15524
2016-03-23T08:15:40.598Z,17536
2016-03-23T08:16:40.601Z,17824
2016-03-23T08:17:40.604Z,16640
2016-03-23T08:18:40.591Z,13228
2016-03-23T08:19:40.454Z,11676
2016-03-23T08:20:40.597Z,11552
2016-03-23T08:21:40.615Z,11616
2016-03-23T08:22:40.602Z,11248
2016-03-23T08:23:40.605Z,10872
2016-03-23T08:24:40.623Z,10888
2016-03-23T08:25:40.641Z,12244
2016-03-23T08:26:40.644Z,13488
2016-03-23T08:27:40.616Z,13428
2016-03-23T08:28:40.633Z,12640
2016-03-23T08:29:40.637Z,11908
2016-03-23T08:30:40.639Z,11160
2016-03-23T08:31:40.642Z,11472
2016-03-23T08:32:40.660Z,12872
2016-03-23T08:33:40.663Z,13772
2016-03-23T08:34:40.650Z,13064
2016-03-23T08:35:40.668Z,11600
2016-03-23T08:36:40.671Z,11248
2016-03-23T08:37:40.657Z,12292
2016-03-23T08:38:40.661Z,13392
2016-03-23T08:39:40.679Z,14424
2016-03-23T08:40:40.510Z,16156
2016-03-23T08:41:40.685Z,17632
2016-03-23T08:42:40.718Z,18400
2016-03-23T08:43:40.689Z,20128
2016-03-23T08:44:40.677Z,20384
2016-03-23T08:45:40.695Z,19808
2016-03-23T08:46:41.713Z,18688
2016-03-23T08:47:41.840Z,18496
2016-03-23T08:48:40.968Z,19232
2016-03-23T08:49:41.034Z,20032
2016-03-23T08:50:40.958Z,20704
2016-03-23T08:51:40.852Z,21280
2016-03-23T08:52:40.948Z,20448
2016-03-23T08:53:40.747Z,20352
2016-03-23T08:54:40.734Z,20064
2016-03-23T08:55:40.737Z,20416
2016-03-23T08:56:41.662Z,20448
2016-03-23T08:57:41.711Z,19840
2016-03-23T08:58:41.120Z,19904
2016-03-23T08:59:40.952Z,19456
2016-03-23T09:00:41.125Z,18816
2016-03-23T09:01:41.286Z,19744
2016-03-23T09:02:40.835Z,21312
2016-03-23T09:03:40.963Z,21888
2016-03-23T09:04:40.918Z,20608
2016-03-23T09:05:41.233Z,17568
2016-03-23T09:06:41.127Z,15816
2016-03-23T09:07:41.004Z,14940
2016-03-23T09:08:40.882Z,13896
2016-03-23T09:09:40.931Z,12720
2016-03-23T09:10:41.013Z,12584
2016-03-23T09:11:41.155Z,13116
2016-03-23T09:12:40.924Z,14112
2016-03-23T09:13:41.067Z,15924
2016-03-23T09:14:41.210Z,17120
2016-03-23T09:15:41.323Z,17056
2016-03-23T09:16:41.013Z,18752
2016-03-23T09:17:41.234Z,20544
2016-03-23T09:18:41.237Z,21568
2016-03-23T09:19:41.176Z,21024
2016-03-23T09:20:41.054Z,22336
2016-03-23T09:21:41.011Z,22016
2016-03-23T09:22:41.169Z,20288
2016-03-23T09:23:41.126Z,18784
2016-03-23T09:24:41.097Z,18400
2016-03-23T09:25:40.864Z,19360
2016-03-23T09:26:41.039Z,18848
2016-03-23T09:27:41.292Z,18560
2016-03-23T09:28:41.155Z,18240
2016-03-23T09:29:41.125Z,17952
2016-03-23T09:30:41.206Z,19168
2016-03-23T09:31:41.069Z,20768
2016-03-23T09:32:41.196Z,21632
2016-03-23T09:33:41.106Z,21184
2016-03-23T09:34:41.202Z,20672
2016-03-23T09:35:40.923Z,20000
2016-03-23T09:36:40.926Z,19360
2016-03-23T09:37:40.929Z,19616
2016-03-23T09:38:41.947Z,19424
2016-03-23T09:39:42.027Z,18624
2016-03-23T09:40:40.921Z,18432
2016-03-23T09:41:41.127Z,17920
2016-03-23T09:42:41.285Z,16052
2016-03-23T09:43:41.196Z,15648
2016-03-23T09:44:41.369Z,16028
2016-03-23T09:45:41.201Z,16640
2016-03-23T09:46:41.172Z,15984
2016-03-23T09:47:41.346Z,15204
2016-03-23T09:48:41.115Z,14900
2016-03-23T09:49:41.039Z,14724
2016-03-23T09:50:40.869Z,14756
2016-03-23T09:51:41.044Z,15736
2016-03-23T09:52:41.094Z,15028
2016-03-23T09:53:41.050Z,13388
2016-03-23T09:54:44.787Z,13776
2016-03-23T09:55:41.056Z,15140
2016-03-23T09:56:41.073Z,16736
2016-03-23T09:57:41.075Z,17952
2016-03-23T09:58:41.079Z,19168
2016-03-23T09:59:41.097Z,18272
2016-03-23T10:00:41.083Z,18432
2016-03-23T10:01:41.289Z,19712
2016-03-23T10:02:41.089Z,20128
2016-03-23T10:03:41.077Z,18048
2016-03-23T10:04:41.111Z,14964
2016-03-23T10:05:41.129Z,12840
2016-03-23T10:06:41.210Z,11048
2016-03-23T10:07:41.102Z,9508
2016-03-23T10:08:41.122Z,8064
2016-03-23T10:09:41.124Z,6964
2016-03-23T10:10:41.127Z,6208
2016-03-23T10:11:41.129Z,5704
2016-03-23T10:12:41.163Z,5544
2016-03-23T10:13:41.151Z,5776
2016-03-23T10:14:41.153Z,6176
2016-03-23T10:15:41.157Z,6620
2016-03-23T10:16:41.174Z,7048
2016-03-23T10:17:41.176Z,7704
2016-03-23T10:18:41.165Z,8692
2016-03-23T10:19:41.182Z,9684
2016-03-23T10:20:41.295Z,10460
2016-03-23T10:21:41.172Z,11464
2016-03-23T10:22:41.190Z,12900
2016-03-23T10:23:41.223Z,14196
2016-03-23T10:24:41.196Z,15052
2016-03-23T10:25:41.198Z,15168
2016-03-23T10:26:41.216Z,14240
2016-03-23T10:27:41.219Z,12772
2016-03-23T10:28:41.222Z,11080
2016-03-23T10:29:41.225Z,9776
2016-03-23T10:30:46.117Z,8904
2016-03-23T10:31:41.824Z,8540
2016-03-23T10:32:41.233Z,8624
2016-03-23T10:33:41.250Z,8936
2016-03-23T10:34:41.239Z,9464
2016-03-23T10:35:41.256Z,10356
2016-03-23T10:36:41.243Z,11568
2016-03-23T10:37:41.246Z,12996
2016-03-23T10:38:41.296Z,15204
2016-03-23T10:39:41.267Z,17760
2016-03-23T10:40:41.254Z,20288
2016-03-23T10:41:41.272Z,21888
2016-03-23T10:42:41.275Z,22880
2016-03-23T10:43:41.293Z,22304
2016-03-23T10:44:41.281Z,20736
2016-03-23T10:45:41.315Z,18240
2016-03-23T10:46:41.302Z,15736
2016-03-23T10:47:41.320Z,14236
2016-03-23T10:48:41.307Z,13832
2016-03-23T10:49:41.325Z,13524
2016-03-23T10:50:41.312Z,13728
2016-03-23T10:51:41.331Z,14148
2016-03-23T10:52:41.333Z,14064
2016-03-23T10:53:41.336Z,13236
2016-03-23T10:54:42.323Z,11864
2016-03-23T10:55:41.373Z,10772
2016-03-23T10:56:41.437Z,10160
2016-03-23T10:57:40.628Z,10188
2016-03-23T10:58:41.350Z,10528
2016-03-23T10:59:41.367Z,10620
2016-03-23T11:00:41.375Z,10668
2016-03-23T11:01:41.363Z,10652
2016-03-23T11:02:41.381Z,10336
2016-03-23T11:03:41.383Z,9760
2016-03-23T11:04:41.386Z,9324
2016-03-23T11:05:41.388Z,8724
2016-03-23T11:06:41.407Z,7996
2016-03-23T11:07:41.410Z,7604
2016-03-23T11:08:41.428Z,7684
2016-03-23T11:09:41.259Z,7772
2016-03-23T11:10:41.418Z,7592
2016-03-23T11:11:41.421Z,7360
2016-03-23T11:12:41.423Z,7496
2016-03-23T11:13:41.441Z,8008
2016-03-23T11:14:41.443Z,8716
2016-03-23T11:15:41.447Z,9680
2016-03-23T11:16:41.434Z,10744
2016-03-23T11:17:41.436Z,11672
2016-03-23T11:18:41.455Z,12368
2016-03-23T11:19:41.457Z,12848
2016-03-23T11:20:41.460Z,13336
2016-03-23T11:21:41.479Z,14040
2016-03-23T11:22:41.997Z,14792
2016-03-23T11:23:42.187Z,15480
2016-03-23T11:24:41.752Z,15876
2016-03-23T11:25:42.896Z,15892
2016-03-23T11:26:42.570Z,15472
2016-03-23T11:27:41.511Z,14600
2016-03-23T11:28:41.857Z,13388
2016-03-23T11:29:41.547Z,11884
2016-03-23T11:30:41.550Z,10584
2016-03-23T11:31:41.537Z,9428
2016-03-23T11:32:41.556Z,8528
2016-03-23T11:33:41.574Z,7944
2016-03-23T11:34:41.544Z,7700
2016-03-23T11:35:41.517Z,7624
2016-03-23T11:36:41.910Z,7408
2016-03-23T11:37:41.585Z,7040
2016-03-23T11:38:41.587Z,6688
2016-03-23T11:39:41.543Z,6240
2016-03-23T11:40:41.545Z,5824
2016-03-23T11:41:41.392Z,5584
2016-03-23T11:42:41.551Z,5528
2016-03-23T11:43:41.553Z,5672
2016-03-23T11:44:41.571Z,5756
2016-03-23T11:45:41.574Z,5668
2016-03-23T11:46:41.577Z,5516
2016-03-23T11:47:41.626Z,5532
2016-03-23T11:48:41.582Z,5724
2016-03-23T11:49:41.679Z,6044
2016-03-23T11:50:41.587Z,6420
2016-03-23T11:51:41.607Z,6836
2016-03-23T11:52:41.593Z,7500
2016-03-23T11:53:41.612Z,8296
2016-03-23T11:54:41.598Z,9132
2016-03-23T11:55:41.898Z,9984
2016-03-23T11:56:41.964Z,10856
2016-03-23T11:57:41.606Z,11816
2016-03-23T11:58:41.687Z,12928
2016-03-23T11:59:41.628Z,14148
2016-03-23T12:00:41.708Z,15216
2016-03-23T12:01:41.634Z,15660
2016-03-23T12:02:41.636Z,15128
2016-03-23T12:03:41.638Z,13632
2016-03-23T12:04:41.641Z,11996
2016-03-23T12:05:41.628Z,10908
2016-03-23T12:06:41.663Z,10876
2016-03-23T12:07:41.665Z,11408
2016-03-23T12:08:41.636Z,11908
2016-03-23T12:09:41.654Z,11716
2016-03-23T12:10:41.641Z,12296
2016-03-23T12:11:41.660Z,13328
2016-03-23T12:12:41.647Z,14108
2016-03-23T12:13:41.681Z,14816
2016-03-23T12:14:41.684Z,16896
2016-03-23T12:15:42.280Z,18752
2016-03-23T12:16:41.690Z,20576
2016-03-23T12:17:41.738Z,21632
2016-03-23T12:18:41.726Z,20416
2016-03-23T12:19:41.712Z,17696
2016-03-23T12:20:41.763Z,13876
2016-03-23T12:21:41.703Z,9292
2016-03-23T12:22:41.706Z,6652
2016-03-23T12:23:41.754Z,6352
2016-03-23T12:24:41.789Z,7060
2016-03-23T12:25:41.745Z,8280
2016-03-23T12:26:41.778Z,9492
2016-03-23T12:27:41.765Z,10476
2016-03-23T12:28:41.831Z,11264
2016-03-23T12:29:41.802Z,11996
2016-03-23T12:30:41.742Z,13172
2016-03-23T12:31:41.589Z,14500
2016-03-23T12:32:41.794Z,15612
2016-03-23T12:33:41.797Z,17024
2016-03-23T12:34:41.816Z,18048
2016-03-23T12:35:41.787Z,18368
2016-03-23T12:36:41.821Z,18048
2016-03-23T12:37:41.824Z,17344
2016-03-23T12:38:41.811Z,16800
2016-03-23T12:39:41.860Z,16116
2016-03-23T12:40:41.863Z,15592
2016-03-23T12:41:41.802Z,15072
2016-03-23T12:42:41.805Z,14624
2016-03-23T12:43:41.808Z,14132
2016-03-23T12:44:41.810Z,13576
2016-03-23T12:45:41.970Z,13332
2016-03-23T12:46:41.879Z,13480
2016-03-23T12:47:41.865Z,13700
2016-03-23T12:48:41.853Z,13888
2016-03-23T12:49:41.856Z,13752
2016-03-23T12:50:41.858Z,13568
2016-03-23T12:51:41.861Z,13764
2016-03-23T12:52:41.927Z,13928
2016-03-23T12:53:41.867Z,13776
2016-03-23T12:54:41.870Z,13408
2016-03-23T12:55:41.872Z,13044
2016-03-23T12:56:41.890Z,13120
2016-03-23T12:57:41.908Z,13524
2016-03-23T12:58:41.895Z,13980
2016-03-23T12:59:41.914Z,14140
2016-03-23T13:00:41.917Z,14076
2016-03-23T13:01:41.903Z,14084
2016-03-23T13:02:41.922Z,14188
2016-03-23T13:03:41.956Z,14568
2016-03-23T13:04:41.927Z,15008
2016-03-23T13:05:41.930Z,15564
2016-03-23T13:06:41.949Z,15912
2016-03-23T13:07:41.935Z,15928
2016-03-23T13:08:41.939Z,15720
2016-03-23T13:09:42.035Z,15868
2016-03-23T13:10:41.974Z,15804
2016-03-23T13:11:41.821Z,15684
2016-03-23T13:12:41.996Z,15768
2016-03-23T13:13:41.983Z,15916
2016-03-23T13:14:42.016Z,15600
2016-03-23T13:15:42.035Z,15024
2016-03-23T13:16:41.835Z,14492
2016-03-23T13:17:41.993Z,14092
2016-03-23T13:18:42.982Z,13564
2016-03-23T13:19:42.780Z,12820
2016-03-23T13:20:42.173Z,12280
2016-03-23T13:21:42.396Z,11664
2016-03-23T13:22:42.101Z,10824
2016-03-23T13:23:42.322Z,9736
2016-03-23T13:24:42.325Z,8464
2016-03-23T13:25:42.421Z,7940
2016-03-23T13:26:42.267Z,7944
2016-03-23T13:27:42.302Z,7928
2016-03-23T13:28:42.211Z,7776
2016-03-23T13:29:42.229Z,7324
2016-03-23T13:30:42.184Z,6864
2016-03-23T13:31:42.562Z,6652
2016-03-23T13:32:42.393Z,6624
2016-03-23T13:33:42.208Z,6808
2016-03-23T13:34:42.352Z,7040
2016-03-23T13:35:42.214Z,6772
2016-03-23T13:36:42.248Z,6228
2016-03-23T13:37:42.157Z,5868
2016-03-23T13:38:42.441Z,5736
2016-03-23T13:39:42.396Z,5656
2016-03-23T13:40:42.369Z,5428